Flight Track Log - Related Links

Times and Time Zones

All times are in EDT time to prevent confusion due to time zone crossing. See the DAL268 flight status page for this flight to view local times or setup timezone preferences in your user account.

Time Position Orientation Groundspeed Altitude Reporting Facility
EDT Latitude Longitude Course Direction KTS MPH feet Rate Location/Type
Sat 12:49:01 AM 41.2272 -70.9250 58° Northeast 557 641 31,000  Level Boston Center
Sat 12:50:01 AM 41.3083 -70.7517 58° Northeast 557 641 31,000  Level Boston Center
Sat 12:51:01 AM 41.3908 -70.5778 58° Northeast 557 641 31,000  Level Boston Center
Sat 12:52:00 AM 42.9821 -68.1373 55° Northeast  Level Estimated
Sat 12:52:01 AM 41.4669 -70.3983 60° Northeast 552 635 31,000  Level Boston Center
Sat 12:53:00 AM 43.0599 -67.9672 58° Northeast  Level Estimated
Sat 12:53:01 AM 41.5450 -70.2267 59° Northeast 552 635 31,000  Level Boston Center
Sat 12:54:00 AM 43.1374 -67.7967 58° Northeast  Level Estimated
Sat 12:54:01 AM 41.6047 -70.0886 60° Northeast 547 629 31,000  Level Boston Center
Sat 12:55:01 AM 41.7025 -69.8847 57° Northeast 542 624 31,000  Level Boston Center
Sat 12:56:01 AM 41.7778 -69.7119 60° Northeast 537 618 31,000  Level Boston Center
Sat 12:57:13 AM 41.8589 -69.5383 58° Northeast 543 625 31,000  Level Boston Center
Sat 12:58:13 AM 41.9292 -69.3647 61° Northeast 543 625 31,000  Level Boston Center
Sat 12:59:13 AM 42.0400 -69.1469 56° Northeast 543 625 31,000  Level Boston Center
Sat 01:01:00 AM 42.1597 -68.8330 59° Northeast  Level FlightAware Approximate
Sat 01:08:00 AM 42.6809 -67.6391 59° Northeast  Level FlightAware Approximate
Sat 01:09:00 AM 42.7806 -67.4936 47° Northeast  Level FlightAware Approximate
Sat 01:10:00 AM 42.8810 -67.3485 47° Northeast  Level FlightAware Approximate
Sat 01:11:00 AM 42.9813 -67.2030 47° Northeast  Level FlightAware Approximate
Sat 01:12:00 AM 43.0911 -67.0709 41° Northeast  Level FlightAware Approximate
Sat 01:13:00 AM 43.1818 -66.9178 62° Northeast  Level FlightAware Approximate
Sat 01:13:25 AM 43.1106 -66.6222 62° Northeast 437 503 31,000  Level Boston Center
Sat 01:14:00 AM 43.2501 -66.7403 62° Northeast  Level FlightAware Approximate
Sat 01:14:25 AM 43.1847 -66.4411 61° Northeast 493 567 31,000  Level Boston Center
Sat 01:15:00 AM 43.3181 -66.5624 62° Northeast  Level FlightAware Approximate
Sat 01:15:25 AM 43.2586 -66.2628 60° Northeast 527 606 31,000  Level Boston Center
Sat 01:16:00 AM 43.3858 -66.3841 62° Northeast  Level FlightAware Approximate
Sat 01:16:25 AM 43.3297 -66.0753 62° Northeast 539 620 31,000  Level Boston Center
Sat 01:17:00 AM 43.4533 -66.2054 62° Northeast  Level FlightAware Approximate
Sat 01:18:00 AM 43.4607 -65.8119 56° Northeast  Level FlightAware Approximate
Sat 01:19:28 AM 43.5500 -65.5000 56° Northeast 550 633 31,000  Level Moncton Center
Sat 01:21:28 AM 43.6833 -65.1333 63° Northeast 550 633 31,000  Level Moncton Center
Sat 01:23:00 AM 43.8415 -64.9129 45° Northeast  Level FlightAware Approximate
Sat 01:27:28 AM 44.1000 -64.0167 64° Northeast 540 621 31,000  Level Moncton Center
Sat 01:30:00 AM 44.3653 -63.6948 63° Northeast  Level FlightAware Approximate
Sat 01:30:05 AM 44.2833 -63.5167 63° Northeast 540 621 31,000  Level Gander Center
Sat 01:31:00 AM 44.4300 -63.5108 64° Northeast  Level FlightAware Approximate
Sat 01:31:05 AM 44.3500 -63.3333 63° Northeast 550 633 31,000  Level Gander Center
Sat 01:32:00 AM 44.4943 -63.3263 64° Northeast  Level FlightAware Approximate
Sat 01:33:00 AM 44.5072 -63.0074 56° Northeast  Level FlightAware Approximate
Sat 01:38:05 AM 44.8167 -62.0167 65° Northeast 550 633 31,000  Level Gander Center
Sat 01:39:05 AM 44.9000 -61.8000 61° Northeast 540 621 31,000 286 Level Gander Center
Sat 01:40:00 AM 45.0251 -61.7605 64° Northeast  Level FlightAware Approximate
Sat 01:41:00 AM 45.0872 -61.5726 65° Northeast  Level FlightAware Approximate
Sat 01:41:00 AM 45.0198 -61.4413 65° Northeast  Level FlightAware Approximate
Sat 01:42:00 AM 45.1490 -61.3843 65° Northeast  Level FlightAware Approximate
Sat 01:43:00 AM 45.2105 -61.1955 65° Northeast  Level FlightAware Approximate
Sat 01:45:05 AM 45.2667 -60.6500 66° East 530 610 33,000  Level Gander Center
Sat 01:47:05 AM 45.3833 -60.2833 66° East 530 610 33,000  Level Gander Center
Sat 01:48:00 AM 45.5323 -60.1835 66° East  Level FlightAware Approximate
Sat 01:48:05 AM 45.4500 -60.1000 63° Northeast 530 610 33,000  Level Gander Center
Sat 01:49:00 AM 45.5915 -59.9922 66° East  Level FlightAware Approximate
Sat 01:49:05 AM 45.5167 -59.8833 66° East 530 610 33,000  Level Gander Center
Sat 01:50:00 AM 45.6505 -59.8005 66° East  Level FlightAware Approximate
Sat 01:50:05 AM 45.5833 -59.7167 60° Northeast 530 610 33,000  Level Gander Center
Sat 01:51:28 AM 45.6667 -59.4333 67° East 530 610 33,000  Level Moncton Center
Sat 01:54:00 AM 45.7873 -59.0705 64° Northeast  Level FlightAware Approximate
Sat 01:59:05 AM 46.1167 -57.9333 66° East 540 621 33,000  Level Gander Center
Sat 02:01:00 AM 46.2180 -57.7323 65° Northeast  Level FlightAware Approximate
Sat 02:01:00 AM 46.2352 -57.5662 65° Northeast  Level Estimated
Sat 02:02:00 AM 46.2783 -57.5394 66° East  Level FlightAware Approximate
Sat 02:02:05 AM 46.2833 -57.3167 65° Northeast 540 621 33,000  Level Gander Center
Sat 02:03:00 AM 46.3382 -57.3461 66° East  Level FlightAware Approximate
Sat 02:04:00 AM 46.3978 -57.1524 66° East  Level FlightAware Approximate
Sat 02:04:05 AM 46.3833 -56.9333 69° East 540 621 33,000  Level Gander Center
Sat 02:05:05 AM 46.4500 -56.7333 64° Northeast 540 621 33,000  Level Gander Center
Sat 02:06:05 AM 46.5167 -56.5333 64° Northeast 540 621 33,000  Level Gander Center
Sat 02:08:05 AM 46.6000 -56.1000 74° East 540 621 33,000  Level Gander Center
Sat 02:09:08 AM 46.6667 -55.8833 66° East 540 621 33,000  Level Gander Center
Sat 02:10:28 AM 46.7333 -55.6167 70° East 550 633 33,000  Level Moncton Center
Sat 02:13:05 AM 46.8667 -55.0667 70° East 540 621 33,000  Level Gander Center
Sat 02:14:08 AM 46.9333 -54.8500 66° East 540 621 33,000  Level Gander Center
Sat 02:15:28 AM 46.9833 -54.5667 75° East 540 621 33,000  Level Moncton Center
Sat 02:17:05 AM 47.0667 -54.2333 70° East 550 633 33,000  Level Gander Center
Sat 02:18:05 AM 47.1167 -54.0167 71° East 550 633 33,000  Level Gander Center
Sat 02:20:05 AM 47.2167 -53.6000 70° East 550 633 33,000  Level Gander Center
Sat 02:21:05 AM 47.2667 -53.4000 70° East 550 633 33,000  Level Gander Center
Sat 02:22:05 AM 47.3167 -53.2000 70° East 550 633 33,000  Level Gander Center
Sat 02:23:08 AM 47.3667 -52.9333 74° East 550 633 33,000  Level Gander Center
Sat 02:26:00 AM 47.4612 -52.5414 70° East  Level FlightAware Approximate
Sat 02:33:00 AM 47.7948 -51.0983 71° East  Level FlightAware Approximate
Sat 02:34:00 AM 47.8375 -50.8891 74° East  Level FlightAware Approximate
Sat 02:35:00 AM 47.8768 -50.6781 74° East  Level FlightAware Approximate
Sat 02:36:00 AM 47.9156 -50.4669 75° East  Level FlightAware Approximate
Sat 02:37:00 AM 47.9541 -50.2555 75° East  Level FlightAware Approximate
Sat 02:38:00 AM 47.9922 -50.0438 75° East  Level FlightAware Approximate
Sat 02:39:00 AM 48.0216 -49.8294 78° East  Level FlightAware Approximate
Sat 02:40:00 AM 48.0514 -49.6145 78° East  Level FlightAware Approximate
Sat 02:41:00 AM 48.0808 -49.3994 78° East  Level FlightAware Approximate
Sat 02:42:00 AM 48.1098 -49.1840 79° East  Level FlightAware Approximate
Sat 02:43:00 AM 48.1384 -48.9684 79° East  Level FlightAware Approximate
Sat 02:44:00 AM 48.1665 -48.7526 79° East  Level FlightAware Approximate
Sat 02:45:00 AM 48.1943 -48.5365 79° East  Level FlightAware Approximate
Sat 02:46:00 AM 48.2217 -48.3202 79° East  Level FlightAware Approximate
Sat 02:47:00 AM 48.2487 -48.1036 79° East  Level FlightAware Approximate
Sat 02:48:00 AM 48.2752 -47.8869 79° East  Level FlightAware Approximate
Sat 02:49:00 AM 48.3014 -47.6699 80° East  Level FlightAware Approximate
Sat 02:49:05 AM 48.3500 -47.2833 80° East 550 633 33,000  Level Gander Center
Sat 02:50:00 AM 48.3271 -47.4526 80° East  Level FlightAware Approximate
Sat 02:50:08 AM 48.3667 -47.0167 85° East 550 633 33,000  Level Gander Center
Sat 02:51:00 AM 48.3525 -47.2352 80° East  Level FlightAware Approximate
Sat 02:51:08 AM 48.4000 -46.8000 77° East 550 633 33,000  Level Gander Center
Sat 02:52:00 AM 48.3774 -47.0176 80° East  Level FlightAware Approximate
Sat 02:53:00 AM 48.4020 -46.7997 80° East  Level FlightAware Approximate
Sat 02:53:00 AM 48.4481 -46.3824 80° East  Level FlightAware Approximate
Sat 02:54:00 AM 48.4272 -46.5819 80° East  Level FlightAware Approximate
Sat 03:00:00 AM 48.6107 -44.8510 80° East  Level FlightAware Approximate
Sat 03:01:00 AM 48.6323 -44.6314 81° East  Level FlightAware Approximate
Sat 03:02:00 AM 48.6535 -44.4116 82° East  Level FlightAware Approximate
Sat 03:03:00 AM 48.6742 -44.1917 82° East  Level FlightAware Approximate
Sat 03:04:00 AM 48.6945 -43.9716 82° East  Level FlightAware Approximate
Sat 03:05:00 AM 48.7145 -43.7513 82° East  Level FlightAware Approximate
Sat 03:06:00 AM 48.7339 -43.5308 82° East  Level FlightAware Approximate
Sat 03:07:00 AM 48.7530 -43.3102 82° East  Level FlightAware Approximate
Sat 03:08:00 AM 48.7716 -43.0894 83° East  Level FlightAware Approximate
Sat 03:09:00 AM 48.7899 -42.8685 83° East  Level FlightAware Approximate
Sat 03:10:00 AM 48.8077 -42.6473 83° East  Level FlightAware Approximate
Sat 03:11:00 AM 48.8256 -42.4262 83° East  Level FlightAware Approximate
Sat 03:12:00 AM 48.8437 -42.2049 83° East  Level FlightAware Approximate
Sat 03:13:00 AM 48.8613 -41.9836 83° East  Level FlightAware Approximate
Sat 03:14:00 AM 48.8785 -41.7620 83° East  Level FlightAware Approximate
Sat 03:15:00 AM 48.8953 -41.5403 83° East  Level FlightAware Approximate
Sat 03:16:00 AM 48.9117 -41.3185 84° East  Level FlightAware Approximate
Sat 03:17:00 AM 48.9276 -41.0965 84° East  Level FlightAware Approximate
Sat 03:18:00 AM 48.9431 -40.8744 84° East  Level FlightAware Approximate
Sat 03:19:00 AM 48.9582 -40.6521 84° East  Level FlightAware Approximate
Sat 03:20:00 AM 48.9729 -40.4297 84° East  Level FlightAware Approximate
Sat 03:21:00 AM 48.9871 -40.2072 84° East  Level FlightAware Approximate
Sat 03:22:00 AM 49.0005 -39.9845 87° East  Level FlightAware Approximate
Sat 03:23:00 AM 49.0074 -39.7611 87° East  Level FlightAware Approximate
Sat 03:24:00 AM 49.0139 -39.5376 87° East  Level FlightAware Approximate
Sat 03:25:00 AM 49.0200 -39.3141 88° East  Level FlightAware Approximate
Sat 03:26:00 AM 49.0256 -39.0905 88° East  Level FlightAware Approximate
Sat 03:27:00 AM 49.0308 -38.8668 88° East  Level FlightAware Approximate
Sat 03:28:00 AM 49.0367 -38.6432 87° East  Level FlightAware Approximate
Sat 03:29:00 AM 49.0435 -38.4196 87° East  Level FlightAware Approximate
Sat 03:30:00 AM 49.0498 -38.1959 87° East  Level FlightAware Approximate
Sat 03:31:00 AM 49.0557 -37.9722 88° East  Level FlightAware Approximate
Sat 03:32:00 AM 49.0611 -37.7485 88° East  Level FlightAware Approximate
Sat 03:33:00 AM 49.0661 -37.5246 88° East  Level FlightAware Approximate
Sat 03:34:00 AM 49.0712 -37.3008 88° East  Level FlightAware Approximate
Sat 03:35:00 AM 49.0759 -37.0769 88° East  Level FlightAware Approximate
Sat 03:36:00 AM 49.0801 -36.8530 88° East  Level FlightAware Approximate
Sat 03:37:00 AM 49.0839 -36.6291 88° East  Level FlightAware Approximate
Sat 03:38:00 AM 49.0872 -36.4051 89° East  Level FlightAware Approximate
Sat 03:39:00 AM 49.0902 -36.1810 89° East  Level FlightAware Approximate
Sat 03:40:00 AM 49.0927 -35.9570 89° East  Level FlightAware Approximate
Sat 03:41:00 AM 49.0947 -35.7329 89° East  Level FlightAware Approximate
Sat 03:42:00 AM 49.0964 -35.5089 89° East  Level FlightAware Approximate
Sat 03:43:00 AM 49.0976 -35.2848 89° East  Level FlightAware Approximate
Sat 03:44:00 AM 49.0984 -35.0607 90° East  Level FlightAware Approximate
Sat 03:45:00 AM 49.0987 -34.8366 90° East  Level FlightAware Approximate
Sat 03:46:00 AM 49.0986 -34.6125 90° East  Level FlightAware Approximate
Sat 03:47:00 AM 49.0980 -34.3884 90° East  Level FlightAware Approximate
Sat 03:48:00 AM 49.0971 -34.1643 90° East  Level FlightAware Approximate
Sat 03:49:00 AM 49.0957 -33.9402 90° East  Level FlightAware Approximate
Sat 03:50:00 AM 49.0938 -33.7161 91° East  Level FlightAware Approximate
Sat 03:51:00 AM 49.0916 -33.4921 91° East  Level FlightAware Approximate
Sat 03:52:00 AM 49.0889 -33.2680 91° East  Level FlightAware Approximate
Sat 03:53:00 AM 49.0857 -33.0440 91° East  Level FlightAware Approximate
Sat 03:54:00 AM 49.0821 -32.8201 91° East  Level FlightAware Approximate
Sat 03:55:00 AM 49.0782 -32.5961 91° East  Level FlightAware Approximate
Sat 03:56:00 AM 49.0737 -32.3722 92° East  Level FlightAware Approximate
Sat 03:57:00 AM 49.0688 -32.1484 92° East  Level FlightAware Approximate
Sat 03:58:00 AM 49.0635 -31.9245 92° East  Level FlightAware Approximate
Sat 03:59:00 AM 49.0578 -31.7008 92° East  Level FlightAware Approximate
Sat 04:00:00 AM 49.0516 -31.4771 92° East  Level FlightAware Approximate
Sat 04:01:00 AM 49.0450 -31.2534 92° East  Level FlightAware Approximate
Sat 04:02:00 AM 49.0380 -31.0298 93° East  Level FlightAware Approximate
Sat 04:03:00 AM 49.0305 -30.8063 93° East  Level FlightAware Approximate
Sat 04:04:00 AM 49.0226 -30.5828 93° East  Level FlightAware Approximate
Sat 04:05:00 AM 49.0143 -30.3595 93° East  Level FlightAware Approximate
Sat 04:06:00 AM 49.0056 -30.1362 93° East  Level FlightAware Approximate
Sat 04:07:00 AM 49.0036 -29.9129 86° East  Level FlightAware Approximate
Sat 04:08:00 AM 49.0124 -29.6896 86° East  Level FlightAware Approximate
Sat 04:09:00 AM 49.0209 -29.4663 87° East  Level FlightAware Approximate
Sat 04:10:00 AM 49.0289 -29.2428 87° East  Level FlightAware Approximate
Sat 04:11:00 AM 49.0364 -29.0193 87° East  Level FlightAware Approximate
Sat 04:12:00 AM 49.0436 -28.7957 87° East  Level FlightAware Approximate
Sat 04:13:00 AM 49.0503 -28.5721 87° East  Level FlightAware Approximate
Sat 04:14:00 AM 49.0566 -28.3484 87° East  Level FlightAware Approximate
Sat 04:15:00 AM 49.0624 -28.1246 88° East  Level FlightAware Approximate
Sat 04:16:00 AM 49.0678 -27.9009 88° East  Level FlightAware Approximate
Sat 04:17:00 AM 49.0728 -27.6770 88° East  Level FlightAware Approximate
Sat 04:18:00 AM 49.0773 -27.4531 88° East  Level FlightAware Approximate
Sat 04:19:00 AM 49.0815 -27.2292 88° East  Level FlightAware Approximate
Sat 04:20:00 AM 49.0851 -27.0052 88° East  Level FlightAware Approximate
Sat 04:21:00 AM 49.0884 -26.7812 89° East  Level FlightAware Approximate
Sat 04:22:00 AM 49.0912 -26.5572 89° East  Level FlightAware Approximate
Sat 04:23:00 AM 49.0936 -26.3331 89° East  Level FlightAware Approximate
Sat 04:24:00 AM 49.0955 -26.1091 89° East  Level FlightAware Approximate
Sat 04:25:00 AM 49.0970 -25.8850 89° East  Level FlightAware Approximate
Sat 04:26:00 AM 49.0981 -25.6609 89° East  Level FlightAware Approximate
Sat 04:27:00 AM 49.0987 -25.4368 90° East  Level FlightAware Approximate
Sat 04:28:00 AM 49.0989 -25.2127 90° East  Level FlightAware Approximate
Sat 04:29:00 AM 49.0987 -24.9886 90° East  Level FlightAware Approximate
Sat 04:30:00 AM 49.0981 -24.7645 90° East  Level FlightAware Approximate
Sat 04:31:00 AM 49.0970 -24.5404 90° East  Level FlightAware Approximate
Sat 04:32:00 AM 49.0954 -24.3163 91° East  Level FlightAware Approximate
Sat 04:33:00 AM 49.0935 -24.0922 91° East  Level FlightAware Approximate
Sat 04:34:00 AM 49.0911 -23.8682 91° East  Level FlightAware Approximate
Sat 04:35:00 AM 49.0883 -23.6442 91° East  Level FlightAware Approximate
Sat 04:36:00 AM 49.0850 -23.4202 91° East  Level FlightAware Approximate
Sat 04:37:00 AM 49.0813 -23.1962 91° East  Level FlightAware Approximate
Sat 04:38:00 AM 49.0772 -22.9723 92° East  Level FlightAware Approximate
Sat 04:39:00 AM 49.0726 -22.7484 92° East  Level FlightAware Approximate
Sat 04:40:00 AM 49.0676 -22.5245 92° East  Level FlightAware Approximate
Sat 04:41:00 AM 49.0636 -22.3007 91° East  Level FlightAware Approximate
Sat 04:42:00 AM 49.0594 -22.0768 92° East  Level FlightAware Approximate
Sat 04:43:00 AM 49.0548 -21.8530 92° East  Level FlightAware Approximate
Sat 04:44:00 AM 49.0498 -21.6293 92° East  Level FlightAware Approximate
Sat 04:45:00 AM 49.0443 -21.4056 92° East  Level FlightAware Approximate
Sat 04:46:00 AM 49.0384 -21.1819 92° East  Level FlightAware Approximate
Sat 04:47:00 AM 49.0321 -20.9583 92° East  Level FlightAware Approximate
Sat 04:48:00 AM 49.0253 -20.7347 93° East  Level FlightAware Approximate
Sat 04:49:00 AM 49.0181 -20.5112 93° East  Level FlightAware Approximate
Sat 04:50:00 AM 49.0105 -20.2878 93° East  Level FlightAware Approximate
Sat 04:51:00 AM 49.0024 -20.0645 93° East  Level FlightAware Approximate
Sat 04:52:00 AM 48.9730 -19.8463 105° East  Level FlightAware Approximate
Sat 04:53:00 AM 48.9348 -19.6306 105° East  Level FlightAware Approximate
Sat 04:54:00 AM 48.8961 -19.4152 105° East  Level FlightAware Approximate
Sat 04:55:00 AM 48.8571 -19.2002 105° East  Level FlightAware Approximate
Sat 04:56:00 AM 48.8176 -18.9854 106° East  Level FlightAware Approximate
Sat 04:57:00 AM 48.7778 -18.7710 106° East  Level FlightAware Approximate
Sat 04:58:00 AM 48.7375 -18.5570 106° East  Level FlightAware Approximate
Sat 04:59:00 AM 48.6969 -18.3433 106° East  Level FlightAware Approximate
Sat 05:00:00 AM 48.6559 -18.1299 106° East  Level FlightAware Approximate
Sat 05:01:00 AM 48.6144 -17.9169 106° East  Level FlightAware Approximate
Sat 05:02:00 AM 48.5726 -17.7043 106° East  Level FlightAware Approximate
Sat 05:03:00 AM 48.5304 -17.4920 107° East  Level FlightAware Approximate
Sat 05:04:00 AM 48.4878 -17.2800 107° East  Level FlightAware Approximate
Sat 05:05:00 AM 48.4448 -17.0685 107° East  Level FlightAware Approximate
Sat 05:06:00 AM 48.4014 -16.8572 107° East  Level FlightAware Approximate
Sat 05:07:00 AM 48.3577 -16.6464 107° East  Level FlightAware Approximate
Sat 05:08:00 AM 48.3135 -16.4359 107° East  Level FlightAware Approximate
Sat 05:09:00 AM 48.2690 -16.2257 108° East  Level FlightAware Approximate
Sat 05:10:00 AM 48.2241 -16.0159 108° East  Level FlightAware Approximate
Sat 05:11:00 AM 48.1788 -15.8065 108° East  Level FlightAware Approximate
Sat 05:12:00 AM 48.1331 -15.5975 108° East  Level FlightAware Approximate
Sat 05:13:00 AM 48.0871 -15.3889 108° East  Level FlightAware Approximate
Sat 05:14:00 AM 48.0406 -15.1806 108° East  Level FlightAware Approximate
Sat 05:15:00 AM 47.9963 -14.9717 101° East  Level FlightAware Approximate
Sat 05:16:00 AM 47.9679 -14.7566 101° East  Level FlightAware Approximate
Sat 05:17:00 AM 47.9390 -14.5418 101° East  Level FlightAware Approximate
Sat 05:18:00 AM 47.9098 -14.3272 101° East  Level FlightAware Approximate
Sat 05:19:00 AM 47.8802 -14.1129 102° East  Level FlightAware Approximate
Sat 05:20:00 AM 47.8502 -13.8988 102° East  Level FlightAware Approximate
Sat 05:21:00 AM 47.8198 -13.6849 102° East  Level FlightAware Approximate
Sat 05:22:00 AM 47.7890 -13.4713 102° East  Level FlightAware Approximate
Sat 05:23:00 AM 47.7578 -13.2580 102° East  Level FlightAware Approximate
Sat 05:24:00 AM 47.7262 -13.0449 102° East  Level FlightAware Approximate
Sat 05:25:00 AM 47.6941 -12.8321 103° East  Level FlightAware Approximate
Sat 05:26:00 AM 47.6618 -12.6195 103° East  Level FlightAware Approximate
Sat 05:27:00 AM 47.6290 -12.4072 103° East  Level FlightAware Approximate
Sat 05:28:00 AM 47.5958 -12.1952 103° East  Level FlightAware Approximate
Sat 05:29:00 AM 47.5622 -11.9834 103° East  Level FlightAware Approximate
Sat 05:30:00 AM 47.5283 -11.7720 103° East  Level FlightAware Approximate
Sat 05:31:00 AM 47.4940 -11.5608 103° East  Level FlightAware Approximate
Sat 05:32:00 AM 47.4592 -11.3498 104° East  Level FlightAware Approximate
Sat 05:33:00 AM 47.4241 -11.1392 104° East  Level FlightAware Approximate
Sat 05:34:00 AM 47.3886 -10.9288 104° East  Level FlightAware Approximate
Sat 05:35:00 AM 47.3529 -10.7187 104° East  Level FlightAware Approximate
Sat 05:36:00 AM 47.3171 -10.5087 104° East  Level FlightAware Approximate
Sat 05:37:00 AM 47.2809 -10.2990 104° East  Level FlightAware Approximate
Sat 05:38:00 AM 47.2443 -10.0896 104° East  Level FlightAware Approximate
Sat 05:39:00 AM 47.2074 -9.8805 105° East  Level FlightAware Approximate
Sat 05:40:00 AM 47.1700 -9.6717 105° East  Level FlightAware Approximate
Sat 05:41:00 AM 47.1323 -9.4632 105° East  Level FlightAware Approximate
Sat 05:42:00 AM 47.0942 -9.2550 105° East  Level FlightAware Approximate
Sat 05:43:00 AM 47.0557 -9.0471 105° East  Level FlightAware Approximate
Sat 05:44:00 AM 47.0169 -8.8394 105° East  Level FlightAware Approximate
Sat 05:45:00 AM 47.0003 -8.6276 90° East  Level FlightAware Approximate
Sat 05:46:00 AM 47.0006 -8.4125 90° East  Level FlightAware Approximate
Sat 05:47:00 AM 47.0005 -8.1973 90° East  Level FlightAware Approximate
Sat 05:48:00 AM 46.9984 -7.9823 98° East  Level FlightAware Approximate
Sat 05:49:00 AM 46.9790 -7.7691 98° East  Level FlightAware Approximate
Sat 05:50:00 AM 46.9591 -7.5560 98° East  Level FlightAware Approximate
Sat 05:51:00 AM 46.9389 -7.3432 98° East  Level FlightAware Approximate
Sat 05:52:00 AM 46.9183 -7.1304 98° East  Level FlightAware Approximate
Sat 05:52:13 AM 46.8320 -7.1770 98° East 494 568 33,000  Level FlightAware ADS-B
Sat 05:53:00 AM 46.8973 -6.9178 98° East  Level FlightAware Approximate
Sat 05:53:14 AM 46.8090 -7.0070 101° East 494 568 33,000  Level FlightAware ADS-B
Sat 05:53:54 AM 46.7840 -6.8310 102° East 494 568 33,000  Level FlightAware ADS-B
Sat 05:54:54 AM 46.7580 -6.6440 101° East 494 568 33,000  Level FlightAware ADS-B
Sat 05:55:40 AM 46.7350 -6.4850 102° East 496 571 33,000  Level FlightAware ADS-B
Sat 05:56:54 AM 46.6990 -6.2400 102° East 497 572 33,000  Level FlightAware ADS-B
Sat 05:58:18 AM 46.6590 -5.9680 102° East 497 572 33,000  Level FlightAware ADS-B
Sat 05:58:58 AM 46.6390 -5.8340 102° East 497 572 33,000  Level FlightAware ADS-B
Sat 05:59:52 AM 46.6120 -5.6580 103° East 497 572 33,000  Level FlightAware ADS-B
Sat 06:00:38 AM 46.5900 -5.5120 102° East 496 571 33,000  Level FlightAware ADS-B
Sat 06:01:22 AM 46.5670 -5.3650 103° East 496 571 33,000  Level FlightAware ADS-B
Sat 06:02:20 AM 46.5380 -5.1800 103° East 497 572 33,000  Level FlightAware ADS-B
Sat 06:03:00 AM 46.5180 -5.0500 103° East 497 572 33,000  Level FlightAware ADS-B
Sat 06:03:42 AM 46.4960 -4.9140 103° East 498 573 33,000  Level FlightAware ADS-B
Sat 06:04:22 AM 46.4750 -4.7800 103° East 499 574 33,000  Level FlightAware ADS-B
Sat 06:05:02 AM 46.4540 -4.6500 103° East 500 575 33,000  Level FlightAware ADS-B
Sat 06:05:50 AM 46.4290 -4.4970 103° East 500 575 33,000  Level FlightAware ADS-B
Sat 06:06:30 AM 46.4080 -4.3630 103° East 499 574 33,000  Level FlightAware ADS-B
Sat 06:07:08 AM 46.3880 -4.2430 104° East 500 575 33,000  Level FlightAware ADS-B
Sat 06:07:56 AM 46.3610 -4.0830 104° East 501 577 33,000  Level FlightAware ADS-B
Sat 06:08:36 AM 46.3390 -3.9540 104° East 499 574 33,000  Level FlightAware ADS-B
Sat 06:09:20 AM 46.3150 -3.8110 104° East 499 574 33,000  Level FlightAware ADS-B
Sat 06:09:58 AM 46.2950 -3.6910 104° East 499 574 33,000  Level FlightAware ADS-B
Sat 06:10:38 AM 46.2730 -3.5620 104° East 498 573 33,000  Level FlightAware ADS-B
Sat 06:11:34 AM 46.2410 -3.3780 104° East 499 574 33,000  Level FlightAware ADS-B
Sat 06:12:22 AM 46.2140 -3.2230 104° East 499 574 33,000  Level FlightAware ADS-B
Sat 06:13:02 AM 46.1920 -3.0980 104° East 499 574 33,000  Level FlightAware ADS-B
Sat 06:13:42 AM 46.1680 -2.9690 105° East 499 574 33,000  Level FlightAware ADS-B
Sat 06:14:21 AM 46.1460 -2.8430 104° East 499 574 33,000  Level FlightAware ADS-B
Sat 06:17:00 AM 46.0595 -2.2962 103° East  Level Estimated
Sat 06:18:00 AM 46.0262 -2.0903 103° East  Level Estimated
Sat 06:19:00 AM 45.9926 -1.8847 103° East  Level Estimated
Sat 06:20:00 AM 45.9585 -1.6793 103° East  Level Estimated
Sat 06:21:00 AM 45.9241 -1.4742 103° East  Level Estimated
Sat 06:22:00 AM 45.8893 -1.2693 104° East  Level Estimated
Sat 06:23:00 AM 45.8542 -1.0647 104° East  Level Estimated
Sat 06:24:00 AM 45.8187 -0.8604 104° East  Level Estimated
Sat 06:25:00 AM 45.7828 -0.6563 104° East  Level Estimated
Sat 06:26:00 AM 45.7466 -0.4525 104° East  Level Estimated
Sat 06:27:00 AM 45.7100 -0.2489 104° East  Level Estimated
Sat 06:28:00 AM 45.6730 -0.0456 105° East  Level Estimated
Sat 06:29:00 AM 45.6357 0.1574 105° East  Level Estimated
Sat 06:30:00 AM 45.5980 0.3602 105° East  Level Estimated
Sat 06:31:00 AM 45.5600 0.5626 105° East  Level Estimated
Sat 06:32:00 AM 45.5216 0.7648 105° East  Level Estimated
Sat 06:33:00 AM 45.4829 0.9668 105° East  Level Estimated
Sat 06:34:00 AM 45.4438 1.1684 105° East  Level Estimated
Sat 06:35:00 AM 45.4043 1.3698 106° East  Level Estimated
Sat 06:36:00 AM 45.3645 1.5709 106° East  Level Estimated
Sat 06:37:00 AM 45.3243 1.7717 106° East  Level Estimated
Sat 06:38:00 AM 45.2838 1.9722 106° East  Level Estimated
Sat 06:39:00 AM 45.2430 2.1724 106° East  Level Estimated
Sat 06:40:00 AM 45.2018 2.3724 106° East  Level Estimated
Sat 06:41:00 AM 45.1602 2.5720 106° East  Level Estimated
Sat 06:42:00 AM 45.1183 2.7714 107° East  Level Estimated
Sat 06:43:00 AM 45.0760 2.9704 107° East  Level Estimated
Sat 06:44:00 AM 45.0335 3.1692 107° East  Level Estimated
Sat 06:45:00 AM 44.9905 3.3677 107° East  Level Estimated
Sat 06:46:00 AM 44.9472 3.5659 107° East  Level Estimated
Sat 06:47:00 AM 44.9036 3.7637 107° East  Level Estimated
Sat 06:48:00 AM 44.8596 3.9613 107° East  Level Estimated
Sat 06:49:00 AM 44.8153 4.1586 108° East  Level Estimated
Sat 06:50:00 AM 44.7707 4.3555 108° East  Level Estimated
Sat 06:51:00 AM 44.7257 4.5522 108° East  Level Estimated
Sat 06:52:00 AM 44.6803 4.7485 108° East  Level Estimated
Sat 06:53:00 AM 44.6347 4.9446 108° East  Level Estimated
Sat 06:54:00 AM 44.5887 5.1403 108° East  Level Estimated
Sat 06:55:00 AM 44.5424 5.3357 108° East  Level Estimated
Sat 06:56:00 AM 44.4957 5.5308 108° East  Level Estimated
Sat 06:57:00 AM 44.4487 5.7256 109° East  Level Estimated
Sat 06:58:00 AM 44.4014 5.9201 109° East  Level Estimated
Sat 06:59:00 AM 44.3537 6.1143 109° East  Level Estimated
Sat 06:59:50 AM 44.2870 5.8820 109° East 541 623 33,000  Level FlightAware ADS-B
Sat 07:02:00 AM 44.1399 6.2752 117° Southeast  Level FlightAware Approximate
Sat 07:03:00 AM 44.0715 6.4560 118° Southeast  Level FlightAware Approximate
Sat 07:04:00 AM 44.0028 6.6364 118° Southeast  Level FlightAware Approximate
Sat 07:05:00 AM 43.9339 6.8164 118° Southeast  Level FlightAware Approximate
Sat 07:06:00 AM 43.8647 6.9959 118° Southeast  Level FlightAware Approximate
Sat 07:07:00 AM 43.7952 7.1751 118° Southeast  Level FlightAware Approximate
Sat 07:08:00 AM 43.7254 7.3538 118° Southeast  Level FlightAware Approximate
Sat 07:09:00 AM 43.6553 7.5321 118° Southeast  Level FlightAware Approximate
Sat 07:10:00 AM 43.5850 7.7100 119° Southeast  Level FlightAware Approximate
Sat 07:11:00 AM 43.5144 7.8875 119° Southeast  Level FlightAware Approximate
Sat 07:12:00 AM 43.4435 8.0646 119° Southeast  Level FlightAware Approximate
Sat 07:13:00 AM 43.3724 8.2412 119° Southeast  Level FlightAware Approximate
Sat 07:13:20 AM 43.1790 8.1790 119° Southeast 531 611 37,000  Level FlightAware ADS-B
Sat 07:13:59 AM 43.1280 8.2870 123° Southeast 530 610 37,000  Level FlightAware ADS-B
Sat 07:14:49 AM 43.0620 8.4320 122° Southeast 531 611 37,000  Level FlightAware ADS-B
Sat 07:15:29 AM 43.0090 8.5480 122° Southeast 531 611 37,000  Level FlightAware ADS-B
Sat 07:16:07 AM 42.9620 8.6510 122° Southeast 532 612 37,000  Level FlightAware ADS-B
Sat 07:16:49 AM 42.9040 8.7750 123° Southeast 531 611 37,000  Level FlightAware ADS-B
Sat 07:17:36 AM 42.8430 8.9050 123° Southeast 532 612 37,000  Level FlightAware ADS-B
Sat 07:18:15 AM 42.7910 9.0150 123° Southeast 532 612 37,000  Level FlightAware ADS-B
Sat 07:18:59 AM 42.7330 9.1390 122° Southeast 532 612 37,000  Level FlightAware ADS-B
Sat 07:19:37 AM 42.6820 9.2460 123° Southeast 533 613 37,000  Level FlightAware ADS-B
Sat 07:20:23 AM 42.6200 9.3760 123° Southeast 535 616 37,000  Level FlightAware ADS-B
Sat 07:21:05 AM 42.5690 9.4970 120° Southeast 528 608 37,000  Level FlightAware ADS-B
Sat 07:21:49 AM 42.5250 9.6290 114° Southeast 518 596 37,000  Level FlightAware ADS-B
Sat 07:22:30 AM 42.4930 9.7550 109° East 519 597 37,000  Level FlightAware ADS-B
Sat 07:23:07 AM 42.4640 9.8690 109° East 519 597 37,000  Level FlightAware ADS-B
Sat 07:23:55 AM 42.4250 10.0160 110° East 520 598 37,000  Level FlightAware ADS-B
Sat 07:24:33 AM 42.3930 10.1350 110° East 520 598 37,000  Level FlightAware ADS-B
Sat 07:25:11 AM 42.3630 10.2480 110° East 520 598 37,000  Level FlightAware ADS-B
Sat 07:26:07 AM 42.3030 10.4160 116° Southeast 536 617 37,000  Level FlightAware ADS-B
Sat 07:26:55 AM 42.2360 10.5500 124° Southeast 538 619 37,000  Level FlightAware ADS-B
Sat 07:27:35 AM 42.1790 10.6560 126° Southeast 541 623 37,000  Level FlightAware ADS-B
Sat 07:28:20 AM 42.1130 10.7790 126° Southeast 542 624 37,000  Level FlightAware ADS-B
Sat 07:29:00 AM 42.0530 10.8910 126° Southeast 541 623 37,000  Level FlightAware ADS-B
Sat 07:29:42 AM 41.9920 11.0060 125° Southeast 538 619 37,000  Level FlightAware ADS-B
Sat 07:32:00 AM 41.8759 11.4319 134° Southeast  Level Estimated
Sat 07:33:00 AM 41.7813 11.5825 130° Southeast  Level FlightAware Approximate
Sat 07:34:00 AM 41.6865 11.7326 130° Southeast  Level FlightAware Approximate
Sat 07:35:00 AM 41.5915 11.8823 130° Southeast  Level FlightAware Approximate
Sat 07:36:00 AM 41.4963 12.0315 130° Southeast  Level FlightAware Approximate
Sat 07:37:00 AM 41.4010 12.1803 130° Southeast  Level FlightAware Approximate
Sat 07:38:00 AM 41.3054 12.3286 131° Southeast  Level FlightAware Approximate
Sat 07:39:00 AM 41.2097 12.4765 131° Southeast  Level FlightAware Approximate
Sat 07:39:48 AM 41.1220 12.5880 131° Southeast 541 623 37,000  Level FlightAware ADS-B
Sat 07:40:00 AM 41.1137 12.6240 131° Southeast  Level FlightAware Approximate
Sat 07:40:51 AM 41.0210 12.7920 123° Southeast 538 619 37,000  Level FlightAware ADS-B
Sat 07:41:29 AM 40.9700 12.9050 121° Southeast 536 617 37,000  Level FlightAware ADS-B
Sat 07:42:18 AM 40.9070 13.0440 121° Southeast 533 613 37,000  Level FlightAware ADS-B
Sat 07:42:58 AM 40.8570 13.1570 120° Southeast 531 611 37,000  Level FlightAware ADS-B
Sat 07:43:40 AM 40.8050 13.2740 120° Southeast 531 611 37,000  Level FlightAware ADS-B
Sat 07:44:22 AM 40.7530 13.3880 121° Southeast 532 612 37,000  Level FlightAware ADS-B
Sat 07:46:00 AM 40.6936 13.6944 104° East  Level FlightAware Approximate
Sat 07:46:22 AM 40.6200 13.6860 105° East 527 606 37,000  Level FlightAware ADS-B
Sat 07:47:00 AM 40.6568 13.8817 104° East  Level FlightAware Approximate
Sat 07:48:00 AM 40.6197 14.0688 105° East  Level FlightAware Approximate
Sat 07:50:00 AM 40.4346 14.3436 110° East  Level Estimated
Sat 07:51:00 AM 40.3829 14.5240 111° Southeast  Level Estimated
Sat 07:52:00 AM 40.3310 14.7041 111° Southeast  Level Estimated
Sat 07:52:46 AM 40.1430 14.7230 111° Southeast 534 615 37,000  Level FlightAware ADS-B
Sat 07:53:26 AM 40.0680 14.8800 122° Southeast 537 618 37,000  Level FlightAware ADS-B
Sat 07:54:12 AM 40.0080 15.0070 122° Southeast 538 619 37,000  Level FlightAware ADS-B
Sat 07:54:52 AM 39.9560 15.1180 121° Southeast 537 618 37,000  Level FlightAware ADS-B
Sat 07:55:32 AM 39.9030 15.2300 122° Southeast 536 617 37,000  Level FlightAware ADS-B
Sat 07:56:12 AM 39.8510 15.3370 122° Southeast 536 617 37,000  Level FlightAware ADS-B
Sat 07:56:58 AM 39.7910 15.4650 121° Southeast 533 613 37,000  Level FlightAware ADS-B
Sat 07:57:34 AM 39.7440 15.5610 122° Southeast 533 613 37,000  Level FlightAware ADS-B
Sat 07:58:16 AM 39.6900 15.6750 122° Southeast 532 612 37,000  Level FlightAware ADS-B
Sat 07:58:59 AM 39.6350 15.7880 122° Southeast 531 611 37,000  Level FlightAware ADS-B
Sat 07:59:48 AM 39.5720 15.9200 122° Southeast 531 611 37,000  Level FlightAware ADS-B
Sat 08:00:29 AM 39.5170 16.0330 122° Southeast 531 611 37,000  Level FlightAware ADS-B
Sat 08:01:20 AM 39.4490 16.1720 122° Southeast 530 610 37,000  Level FlightAware ADS-B
Sat 08:02:03 AM 39.4040 16.2930 116° Southeast 534 615 37,000  Level FlightAware ADS-B
Sat 08:02:48 AM 39.3630 16.4270 112° Southeast 534 615 37,000  Level FlightAware ADS-B
Sat 08:03:28 AM 39.3250 16.5450 113° Southeast 536 617 37,000  Level FlightAware ADS-B
Sat 08:04:08 AM 39.2860 16.6620 113° Southeast 537 618 37,000  Level FlightAware ADS-B
Sat 08:04:53 AM 39.2430 16.7890 114° Southeast 538 619 37,000  Level FlightAware ADS-B
Sat 08:05:48 AM 39.1900 16.9580 112° Southeast 540 621 37,000  Level FlightAware ADS-B
Sat 08:06:33 AM 39.1480 17.0920 112° Southeast 537 618 37,000  Level FlightAware ADS-B
Sat 08:07:14 AM 39.1100 17.2100 113° Southeast 536 617 37,000  Level FlightAware ADS-B
Sat 08:07:53 AM 39.0720 17.3270 113° Southeast 535 616 37,000  Level FlightAware ADS-B
Sat 08:08:28 AM 39.0390 17.4300 112° Southeast 535 616 37,000  Level FlightAware ADS-B
Sat 08:09:08 AM 39.0010 17.5480 112° Southeast 534 615 37,000  Level FlightAware ADS-B
Sat 08:09:48 AM 38.9620 17.6650 113° Southeast 535 616 37,000  Level FlightAware ADS-B
Sat 08:10:23 AM 38.9290 17.7680 112° Southeast 537 618 37,000  Level FlightAware ADS-B
Sat 08:11:00 AM 38.9010 17.8560 112° Southeast 537 618 37,000  Level FlightAware ADS-B
Sat 08:11:55 AM 38.8520 18.0030 113° Southeast 540 621 37,000  Level FlightAware ADS-B
Sat 08:12:33 AM 38.8030 18.1500 113° Southeast 541 623 37,000  Level FlightAware ADS-B
Sat 08:13:08 AM 38.7690 18.2540 113° Southeast 543 625 37,000  Level FlightAware ADS-B
Sat 08:13:48 AM 38.7320 18.3660 113° Southeast 545 627 37,000  Level FlightAware ADS-B
Sat 08:14:33 AM 38.6850 18.5060 113° Southeast 550 633 37,000  Level FlightAware ADS-B
Sat 08:17:00 AM 38.5517 18.9333 112° Southeast  Level Estimated
Sat 08:18:00 AM 38.4969 19.1073 112° Southeast  Level Estimated
Sat 08:18:36 AM 38.4780 19.1280 112° Southeast 552 635 37,000  Level FlightAware ADS-B
Sat 08:21:00 AM 38.3455 19.5444 112° Southeast  Level Estimated
Sat 08:22:00 AM 38.2899 19.7175 112° Southeast  Level Estimated
Sat 08:23:00 AM 38.2340 19.8903 112° Southeast  Level Estimated
Sat 08:23:21 AM 38.2490 20.0790 112° Southeast 560 644 37,000  Level FlightAware ADS-B
Sat 08:24:07 AM 38.1830 20.2870 112° Southeast 561 646 37,000  Level FlightAware ADS-B
Sat 08:24:43 AM 38.1440 20.4100 112° Southeast 561 646 37,000  Level FlightAware ADS-B
Sat 08:25:49 AM 38.0820 20.6080 112° Southeast 560 644 37,000  Level FlightAware ADS-B
Sat 08:26:53 AM 38.0200 20.8020 112° Southeast 555 639 37,000  Level FlightAware ADS-B
Sat 08:27:33 AM 37.9820 20.9220 112° Southeast 553 636 37,000  Level FlightAware ADS-B
Sat 08:28:13 AM 37.9430 21.0410 113° Southeast 553 636 37,000  Level FlightAware ADS-B
Sat 08:28:58 AM 37.9000 21.1780 112° Southeast 550 633 37,000  Level FlightAware ADS-B
Sat 08:29:38 AM 37.8620 21.2940 113° Southeast 548 631 37,000  Level FlightAware ADS-B
Sat 08:32:00 AM 37.7249 21.6978 113° Southeast  Level FlightAware Approximate
Sat 08:33:00 AM 37.6666 21.8679 113° Southeast  Level FlightAware Approximate
Sat 08:34:00 AM 37.6080 22.0378 113° Southeast  Level FlightAware Approximate
Sat 08:34:58 AM 37.5670 22.1870 114° Southeast 535 616 37,000  Level FlightAware ADS-B
Sat 08:35:00 AM 37.5492 22.2074 114° Southeast  Level FlightAware Approximate
Sat 08:35:38 AM 37.5170 22.3360 113° Southeast 533 613 37,000  Level FlightAware ADS-B
Sat 08:36:20 AM 37.4750 22.4610 113° Southeast 533 613 37,000  Level FlightAware ADS-B
Sat 08:37:04 AM 37.4320 22.5860 113° Southeast 533 613 37,000  Level FlightAware ADS-B
Sat 08:37:45 AM 37.3930 22.7000 113° Southeast 535 616 37,000  Level FlightAware ADS-B
Sat 08:38:22 AM 37.3560 22.8090 113° Southeast 535 616 37,000  Level FlightAware ADS-B
Sat 08:39:02 AM 37.3170 22.9230 113° Southeast 534 615 37,000  Level FlightAware ADS-B
Sat 08:39:48 AM 37.2730 23.0510 113° Southeast 531 611 37,000  Level FlightAware ADS-B
Sat 08:40:32 AM 37.2290 23.1780 113° Southeast 532 612 37,000  Level FlightAware ADS-B
Sat 08:41:10 AM 37.1920 23.2850 113° Southeast 532 612 37,000  Level FlightAware ADS-B
Sat 08:41:58 AM 37.1450 23.4210 113° Southeast 531 611 37,000  Level FlightAware ADS-B
Sat 08:42:36 AM 37.1070 23.5280 114° Southeast 532 612 37,000  Level FlightAware ADS-B
Sat 08:43:22 AM 37.0620 23.6550 114° Southeast 532 612 37,000  Level FlightAware ADS-B
Sat 08:44:02 AM 37.0210 23.7700 114° Southeast 534 615 37,000  Level FlightAware ADS-B
Sat 08:44:42 AM 36.9810 23.8830 114° Southeast 534 615 37,000  Level FlightAware ADS-B
Sat 08:47:00 AM 36.8348 24.2634 116° Southeast  Level Estimated
Sat 08:48:00 AM 36.7709 24.4284 116° Southeast  Level Estimated
Sat 08:49:00 AM 36.7068 24.5931 116° Southeast  Level Estimated
Sat 08:49:46 AM 36.6800 24.7200 116° Southeast 531 611 37,000  Level FlightAware ADS-B
Sat 08:50:29 AM 36.6310 24.8530 115° Southeast 530 610 37,000  Level FlightAware ADS-B
Sat 08:50:57 AM 36.6030 24.9280 115° Southeast 529 609 37,000  Level FlightAware ADS-B
Sat 08:51:37 AM 36.5630 25.0390 114° Southeast 528 608 37,000  Level FlightAware ADS-B
Sat 08:52:31 AM 36.5070 25.1900 115° Southeast 527 606 37,000  Level FlightAware ADS-B
Sat 08:53:45 AM 36.4310 25.3960 115° Southeast 528 608 37,000  Level FlightAware ADS-B
Sat 08:54:27 AM 36.3870 25.5120 115° Southeast 531 611 37,000  Level FlightAware ADS-B
Sat 08:55:23 AM 36.3290 25.6670 115° Southeast 531 611 37,000  Level FlightAware ADS-B
Sat 08:56:19 AM 36.2720 25.8180 115° Southeast 531 611 37,000  Level FlightAware ADS-B
Sat 08:56:59 AM 36.2290 25.9310 115° Southeast 531 611 37,000  Level FlightAware ADS-B
Sat 08:57:41 AM 36.1860 26.0440 115° Southeast 529 609 37,000  Level FlightAware ADS-B
Sat 08:58:23 AM 36.1420 26.1610 115° Southeast 529 609 37,000  Level FlightAware ADS-B
Sat 08:59:08 AM 36.0950 26.2820 116° Southeast 529 609 37,000  Level FlightAware ADS-B
Sat 08:59:49 AM 36.0510 26.3960 115° Southeast 530 610 37,000  Level FlightAware ADS-B
Sat 09:02:00 AM 35.8478 26.7132 117° Southeast  Level FlightAware Approximate
Sat 09:03:00 AM 35.7818 26.8749 117° Southeast  Level FlightAware Approximate
Sat 09:03:29 AM 35.8310 26.9640 117° Southeast 528 608 37,000  Level FlightAware ADS-B
Sat 09:04:00 AM 35.7157 27.0363 117° Southeast  Level FlightAware Approximate
Sat 09:04:49 AM 35.7610 27.1490 115° Southeast 528 608 37,000  Level FlightAware ADS-B
Sat 09:06:50 AM 35.6540 27.4300 118° Southeast 528 608 37,000  Level FlightAware ADS-B
Sat 09:07:00 AM 35.6111 27.4976 118° Southeast  Level FlightAware Approximate
Sat 09:07:41 AM 35.6100 27.5480 115° Southeast 528 608 37,000  Level FlightAware ADS-B
Sat 09:08:05 AM 35.5890 27.6030 115° Southeast 528 608 37,000  Level FlightAware ADS-B
Sat 09:08:52 AM 35.5470 27.7120 115° Southeast 528 608 37,000  Level FlightAware ADS-B
Sat 09:09:25 AM 35.4400 27.9440 119° Southeast 37,000  Level FlightAware ADS-B
Sat 09:11:08 AM 35.3270 28.2230 116° Southeast 525 604 37,000  Level FlightAware ADS-B
Sat 09:12:05 AM 35.2660 28.3720 117° Southeast 525 604 37,000  Level FlightAware ADS-B
Sat 09:12:34 AM 35.2340 28.4520 116° Southeast 526 605 37,000  Level FlightAware ADS-B
Sat 09:13:04 AM 35.2010 28.5290 118° Southeast 526 605 37,000  Level FlightAware ADS-B
Sat 09:13:50 AM 35.1510 28.6540 116° Southeast 526 605 37,000  Level FlightAware ADS-B
Sat 09:14:26 AM 35.1120 28.7470 117° Southeast 527 606 37,000  Level FlightAware ADS-B
Sat 09:14:56 AM 35.0800 28.8240 117° Southeast 526 605 37,000  Level FlightAware ADS-B
Sat 09:15:21 AM 35.0510 28.8920 118° Southeast 526 605 37,000  Level FlightAware ADS-B
Sat 09:16:48 AM 34.9700 29.0880 117° Southeast 525 604 37,000  Level FlightAware ADS-B
Sat 09:19:00 AM 34.8089 29.4290 120° Southeast  Level FlightAware Approximate
Sat 09:20:00 AM 34.7353 29.5836 120° Southeast  Level FlightAware Approximate
Sat 09:21:00 AM 34.6616 29.7379 120° Southeast  Level FlightAware Approximate
Sat 09:21:12 AM 34.7260 29.6940 120° Southeast 525 604 37,000  Level FlightAware ADS-B
Sat 09:22:43 AM 34.5560 30.0460 120° Southeast 518 596 37,000  Level FlightAware ADS-B
Sat 09:23:18 AM 34.5150 30.1310 120° Southeast 517 595 37,000  Level FlightAware ADS-B
Sat 09:24:18 AM 34.4470 30.2740 120° Southeast 516 594 37,000  Level FlightAware ADS-B
Sat 09:24:54 AM 34.3990 30.3740 120° Southeast 514 592 37,000  Level FlightAware ADS-B
Sat 09:25:44 AM 34.3390 30.5010 120° Southeast 513 590 37,000  Level FlightAware ADS-B
Sat 09:26:25 AM 34.2920 30.5950 121° Southeast 513 590 37,000  Level FlightAware ADS-B
Sat 09:27:06 AM 34.2420 30.7010 120° Southeast 511 588 37,000  Level FlightAware ADS-B
Sat 09:27:45 AM 34.1960 30.7940 121° Southeast 509 586 37,000  Level FlightAware ADS-B
Sat 09:28:26 AM 34.1520 30.8880 119° Southeast 508 585 37,000  Level FlightAware ADS-B
Sat 09:29:10 AM 34.0930 31.0070 121° Southeast 507 583 37,000  Level FlightAware ADS-B
Sat 09:29:51 AM 34.0460 31.1030 121° Southeast 507 583 37,000  Level FlightAware ADS-B
Sat 09:33:00 AM 33.7959 31.5714 123° Southeast  Level FlightAware Approximate
Sat 09:34:00 AM 33.7161 31.7195 123° Southeast  Level FlightAware Approximate
Sat 09:34:46 AM 33.7200 31.7670 123° Southeast 507 583 37,000  Level FlightAware ADS-B
Sat 09:35:30 AM 33.6470 31.9100 121° Southeast 508 585 37,000  Level FlightAware ADS-B
Sat 09:36:03 AM 33.5990 32.0040 121° Southeast 509 586 37,000  Level FlightAware ADS-B
Sat 09:37:08 AM 33.5200 32.1610 121° Southeast 506 582 37,000  Level FlightAware ADS-B
Sat 09:37:43 AM 33.4760 32.2490 121° Southeast 507 583 37,000  Level FlightAware ADS-B
Sat 09:38:29 AM 33.4210 32.3570 121° Southeast 507 583 37,000  Level FlightAware ADS-B
Sat 09:39:10 AM 33.3720 32.4540 121° Southeast 509 586 37,000  Level FlightAware ADS-B
Sat 09:40:02 AM 33.3130 32.5740 120° Southeast 509 586 37,000 -844 Level FlightAware ADS-B
Sat 09:41:25 AM 33.2010 32.7900 122° Southeast 506 582 35,100 -1,649 Descending FlightAware ADS-B
Sat 09:42:13 AM 33.1450 32.8980 122° Southeast 495 570 33,400 -2,133 Descending FlightAware ADS-B
Sat 09:42:55 AM 33.0970 32.9930 121° Southeast 488 562 31,900 -2,113 Descending FlightAware ADS-B
Sat 09:43:24 AM 33.0610 33.0610 122° Southeast 480 552 30,900 -2,174 Descending FlightAware ADS-B
Sat 09:44:04 AM 33.0140 33.1510 122° Southeast 474 545 29,400 -2,074 Descending FlightAware ADS-B
Sat 09:44:45 AM 32.9670 33.2430 121° Southeast 470 541 28,100 -1,647 Descending FlightAware ADS-B
Sat 09:44:55 AM 32.9570 33.2610 124° Southeast 472 543 28,000 -2,195 Descending FlightAware ADS-B
Sat 09:48:00 AM 32.6879 33.6944 120° Southeast  Level FlightAware Approximate
Sat 09:48:10 AM 32.7410 33.6760 120° Southeast 450 518 20,600  Level FlightAware ADS-B
Sat 09:48:50 AM 32.6910 33.7690 123° Southeast 439 505 18,700 -2,602 Descending FlightAware ADS-B
Sat 09:49:33 AM 32.6450 33.8580 122° Southeast 424 488 17,000 -2,289 Descending FlightAware ADS-B
Sat 09:50:27 AM 32.5910 33.9600 122° Southeast 408 470 15,000 -2,234 Descending FlightAware ADS-B
Sat 09:51:07 AM 32.5510 34.0350 122° Southeast 397 457 13,500 -2,211 Descending FlightAware ADS-B
Sat 09:52:02 AM 32.4990 34.1330 122° Southeast 381 438 11,500 -1,429 Descending FlightAware ADS-B
Sat 09:53:13 AM 32.4220 34.2350 132° Southeast 359 413 10,500 -531 Descending FlightAware ADS-B
Sat 09:53:55 AM 32.3810 34.2840 135° Southeast 359 413 10,500 -876 Level FlightAware ADS-B
Sat 09:54:42 AM 32.3320 34.3410 135° Southeast 287 330 9,200 -857 Descending FlightAware ADS-B
Sat 09:55:40 AM 32.2840 34.3970 135° Southeast 287 330 9,000 -125 Descending FlightAware ADS-B
Sat 09:56:18 AM 32.2530 34.4330 136° Southeast 287 330 9,000  Level FlightAware ADS-B
Sat 09:56:41 AM 32.2350 34.4550 134° Southeast 287 330 9,000  Level FlightAware ADS-B
Sat 09:59:00 AM 32.0474 34.7878 125° Southeast  Level FlightAware Approximate
Sat 10:00:00 AM 32.0000 34.8667 125° Southeast  Level FlightAware Approximate
Sat 10:01:00 AM 32.0095 34.8769 125° Southeast  Level Estimated
Sat 10:02:00 AM 32.0095 34.8769 125° Southeast  Level Estimated
Sat 10:03:00 AM 32.0095 34.8769 125° Southeast  Level Estimated
Sat 10:04:00 AM 32.0095 34.8769 125° Southeast  Level Estimated
Sat 10:05:00 AM 32.0095 34.8769 125° Southeast  Level Estimated
Sat 10:06:00 AM 32.0095 34.8769 125° Southeast  Level Estimated
Sat 10:07:00 AM 32.0095 34.8769 125° Southeast  Level Estimated
Sat 10:08:00 AM 32.0095 34.8769 125° Southeast  Level Estimated
Sat 10:09:00 AM 32.0095 34.8769 125° Southeast  Level Estimated
Sat 10:10:00 AM 32.0095 34.8769 125° Southeast  Level Estimated

Login

Don't have an account? Register now (free) for customized features, flight alerts, and more!